To NAV CANADA Home Page Login to a new session Search on AWWS site Feedback and Comments Disclaimer Vers la page française équivalente Tips FAQ What's new on the site To the Forecasts and Observations / NOTAM section To "File a Flight Plan" website Publications and other links Update of the User's profile FIC Telephone Numbers My Weather Data Folder Route Weather Data Regional Weather Data Local Weather Data To the Forecasts and Observations / NOTAM section
Request Generated 12/10/2016 at 16:31:13 UTC . Weather information available at that time is displayed.

METAR/TAF

BURWASH/YT    (show WxCam)

SPECI CYDB 101620Z 28004KT 20SM SCT006 BKN110 M27/M29 A3032 RMK
ST3AC4 SLP370=
METAR CYDB 101600Z 30004KT 9SM BKN006 BKN110 M27/M29 A3032 RMK ST5AC2
SLP371=
METAR CYDB 101500Z 27005KT 9SM BKN008 M28/M30 A3033 RMK ST7 CLIMAT
-23.0/-28.5/TR CM/TR MWE/48012 SLP375=
METAR CYDB 101400Z AUTO 29004KT 9SM OVC008 M28/M31 A3032 RMK SLP371=

TAF AMD CYDB 101506Z 1015/1024 29006KT P6SM OVC008 TEMPO 1015/1017
SCT008
FM101700 VRB03KT P6SM FEW008 BKN040
RMK FCST BASED ON AUTO OBS. NXT FCST BY 101800Z=
Your time UTC time
Weather data provided by Environment Canada and NAV CANADA